createdAt,value
2017-11-15T00:00:09.790Z,8.34
2017-11-15T00:00:50.410Z,8.34
2017-11-15T00:01:30.826Z,8.4
2017-11-15T00:02:11.326Z,8.28
2017-11-15T00:02:51.825Z,8.28
2017-11-15T00:03:32.383Z,8.28
2017-11-15T00:04:12.936Z,8.23
2017-11-15T00:04:53.441Z,8.2
2017-11-15T00:05:33.928Z,8.16
2017-11-15T00:06:14.504Z,8.12
2017-11-15T00:06:55.055Z,8.16
2017-11-15T00:07:35.584Z,8.16
2017-11-15T00:08:16.167Z,8.1
2017-11-15T00:08:56.698Z,8.11
2017-11-15T00:09:37.214Z,8.15
2017-11-15T00:10:17.814Z,8.05
2017-11-15T00:10:58.339Z,8.16
2017-11-15T00:11:38.824Z,8.04
2017-11-15T00:12:19.424Z,8.15
2017-11-15T00:13:00.017Z,8.11
2017-11-15T00:13:40.570Z,8.15
2017-11-15T00:14:21.207Z,8.11
2017-11-15T00:15:01.695Z,8.12
2017-11-15T00:15:42.234Z,8.11
2017-11-15T00:16:22.743Z,8.19
2017-11-15T00:17:03.304Z,8.04
2017-11-15T00:17:43.858Z,8.15
2017-11-15T00:18:24.331Z,8.1
2017-11-15T00:19:04.912Z,8.19
2017-11-15T00:19:45.557Z,8.23
2017-11-15T00:20:26.086Z,8.07
2017-11-15T00:21:06.652Z,8.19
2017-11-15T00:21:47.121Z,8.19
2017-11-15T00:22:27.771Z,8.16
2017-11-15T00:23:08.290Z,8.18
2017-11-15T00:23:48.828Z,8.22
2017-11-15T00:24:29.587Z,8.19
2017-11-15T00:25:10.318Z,8.28
2017-11-15T00:25:50.762Z,8.22
2017-11-15T00:26:31.325Z,8.18
2017-11-15T00:27:11.864Z,8.2
2017-11-15T00:27:52.371Z,8.19
2017-11-15T00:28:32.988Z,8.18
2017-11-15T00:29:13.587Z,8.23
2017-11-15T00:29:54.149Z,8.15
2017-11-15T00:30:34.687Z,8.18
2017-11-15T00:31:15.155Z,8.1
2017-11-15T00:31:55.736Z,8.08
2017-11-15T00:32:36.296Z,8.2
2017-11-15T00:33:16.934Z,8.1
2017-11-15T00:33:57.466Z,8.1
2017-11-15T00:34:37.971Z,8.05
2017-11-15T00:35:18.537Z,8.05
2017-11-15T00:35:59.074Z,8.15
2017-11-15T00:36:39.749Z,8.07
2017-11-15T00:37:20.286Z,8.07
2017-11-15T00:38:00.817Z,8.08
2017-11-15T00:38:41.331Z,8.04
2017-11-15T00:39:21.904Z,8.07
2017-11-15T00:40:02.429Z,8.1
2017-11-15T00:40:42.997Z,8.07
2017-11-15T00:41:23.505Z,8.1
2017-11-15T00:42:04.064Z,8.01
2017-11-15T00:42:44.682Z,7.95
2017-11-15T00:43:25.162Z,8.04
2017-11-15T00:44:05.751Z,8.12
2017-11-15T00:44:46.240Z,8.05
2017-11-15T00:45:26.829Z,8.05
2017-11-15T00:46:07.340Z,8.11
2017-11-15T00:46:47.889Z,7.95
2017-11-15T00:47:28.384Z,7.85
2017-11-15T00:48:08.963Z,7.69
2017-11-15T00:48:49.497Z,7.58
2017-11-15T00:49:30.202Z,7.68
2017-11-15T00:50:10.762Z,7.79
2017-11-15T00:50:51.242Z,7.69
2017-11-15T00:51:31.803Z,7.87
2017-11-15T00:52:12.309Z,7.79
2017-11-15T00:52:52.879Z,7.64
2017-11-15T00:53:33.448Z,7.6
2017-11-15T00:54:14.015Z,7.61
2017-11-15T00:54:54.547Z,7.69
2017-11-15T00:55:35.045Z,7.72
2017-11-15T00:56:15.594Z,7.72
2017-11-15T00:56:56.104Z,7.68
2017-11-15T00:57:36.633Z,7.67
2017-11-15T00:58:17.292Z,7.71
2017-11-15T00:58:57.784Z,7.75
2017-11-15T00:59:38.546Z,7.86
2017-11-15T01:00:19.138Z,7.77
2017-11-15T01:00:59.647Z,7.92
2017-11-15T01:01:40.249Z,7.8
2017-11-15T01:02:20.757Z,7.82
2017-11-15T01:03:01.347Z,7.79
2017-11-15T01:03:41.945Z,7.83
2017-11-15T01:04:22.573Z,7.75
2017-11-15T01:05:03.122Z,7.61
2017-11-15T01:05:43.623Z,7.67
2017-11-15T01:06:24.148Z,7.71
2017-11-15T01:07:04.696Z,7.79
2017-11-15T01:07:45.436Z,7.67
2017-11-15T01:08:25.929Z,7.55
2017-11-15T01:09:06.448Z,7.52
2017-11-15T01:09:47.030Z,7.49
2017-11-15T01:10:27.548Z,7.61
2017-11-15T01:11:08.087Z,7.67
2017-11-15T01:11:48.733Z,7.58
2017-11-15T01:12:29.330Z,7.48
2017-11-15T01:13:09.877Z,7.49
2017-11-15T01:13:50.431Z,7.28
2017-11-15T01:14:31.015Z,7.31
2017-11-15T01:15:11.588Z,7.16
2017-11-15T01:15:52.129Z,7.15
2017-11-15T01:16:32.747Z,7.21
2017-11-15T01:17:13.340Z,7.3
2017-11-15T01:17:53.846Z,7.42
2017-11-15T01:18:34.386Z,7.45
2017-11-15T01:19:14.943Z,7.45
2017-11-15T01:19:55.455Z,7.5
2017-11-15T01:20:36.021Z,7.5
2017-11-15T01:21:16.561Z,7.53
2017-11-15T01:21:57.102Z,7.43
2017-11-15T01:22:37.723Z,7.34
2017-11-15T01:23:18.207Z,7.3
2017-11-15T01:23:58.701Z,7.34
2017-11-15T01:24:39.260Z,7.42
2017-11-15T01:25:19.762Z,7.43
2017-11-15T01:26:00.489Z,7.55
2017-11-15T01:26:41.023Z,7.53
2017-11-15T01:27:21.524Z,7.52
2017-11-15T01:28:02.069Z,7.53
2017-11-15T01:28:42.608Z,7.64
2017-11-15T01:29:23.120Z,7.68
2017-11-15T01:30:03.665Z,7.67
2017-11-15T01:30:44.120Z,7.58
2017-11-15T01:31:24.689Z,7.6
2017-11-15T01:32:05.315Z,7.64
2017-11-15T01:32:45.764Z,7.6
2017-11-15T01:33:26.265Z,7.64
2017-11-15T01:34:06.761Z,7.53
2017-11-15T01:34:47.403Z,7.46
2017-11-15T01:35:27.882Z,7.48
2017-11-15T01:36:08.484Z,7.67
2017-11-15T01:36:48.966Z,7.63
2017-11-15T01:37:29.517Z,7.69
2017-11-15T01:38:10.029Z,7.72
2017-11-15T01:38:50.551Z,7.67
2017-11-15T01:39:31.138Z,7.71
2017-11-15T01:40:11.642Z,7.64
2017-11-15T01:40:52.177Z,7.61
2017-11-15T01:41:32.683Z,7.71
2017-11-15T01:42:13.288Z,7.63
2017-11-15T01:42:53.825Z,7.52
2017-11-15T01:43:34.371Z,7.45
2017-11-15T01:44:14.972Z,7.43
2017-11-15T01:44:55.409Z,7.34
2017-11-15T01:45:35.960Z,7.45
2017-11-15T01:46:16.454Z,7.49
2017-11-15T01:46:56.997Z,7.46
2017-11-15T01:47:37.477Z,7.53
2017-11-15T01:48:18.015Z,7.57
2017-11-15T01:48:58.526Z,7.52
2017-11-15T01:49:39.101Z,7.64
2017-11-15T01:50:19.631Z,7.5
2017-11-15T01:51:00.154Z,7.68
2017-11-15T01:51:40.681Z,7.64
2017-11-15T01:52:21.217Z,7.69
2017-11-15T01:53:01.726Z,7.61
2017-11-15T01:53:42.237Z,7.53
2017-11-15T01:54:22.826Z,7.55
2017-11-15T01:55:03.413Z,7.53
2017-11-15T01:55:43.941Z,7.49
2017-11-15T01:56:24.460Z,7.4
2017-11-15T01:57:05.031Z,7.42
2017-11-15T01:57:45.616Z,7.39
2017-11-15T01:58:26.162Z,7.39
2017-11-15T01:59:06.685Z,7.48
2017-11-15T01:59:47.204Z,7.4
2017-11-15T02:00:27.756Z,7.42
2017-11-15T02:01:08.302Z,7.39
2017-11-15T02:01:48.820Z,7.43
2017-11-15T02:02:29.339Z,7.32
2017-11-15T02:03:09.881Z,7.4
2017-11-15T02:03:50.403Z,7.39
2017-11-15T02:04:30.887Z,7.5
2017-11-15T02:05:11.439Z,7.49
2017-11-15T02:05:51.999Z,7.58
2017-11-15T02:06:32.584Z,7.52
2017-11-15T02:07:13.069Z,7.5
2017-11-15T02:07:53.627Z,7.53
2017-11-15T02:08:34.114Z,7.49
2017-11-15T02:09:14.693Z,7.5
2017-11-15T02:09:55.179Z,7.55
2017-11-15T02:10:35.692Z,7.58
2017-11-15T02:11:16.241Z,7.52
2017-11-15T02:11:56.747Z,7.55
2017-11-15T02:12:37.338Z,7.49
2017-11-15T02:13:17.879Z,7.5
2017-11-15T02:13:58.387Z,7.5
2017-11-15T02:14:38.940Z,7.53
2017-11-15T02:15:19.441Z,7.55
2017-11-15T02:16:00.000Z,7.52
2017-11-15T02:16:40.499Z,7.48
2017-11-15T02:17:21.226Z,7.27
2017-11-15T02:18:01.799Z,7.34
2017-11-15T02:18:42.357Z,7.31
2017-11-15T02:19:22.872Z,7.39
2017-11-15T02:20:03.351Z,7.25
2017-11-15T02:20:43.898Z,7.3
2017-11-15T02:21:24.417Z,7.21
2017-11-15T02:22:04.958Z,7.02
2017-11-15T02:22:45.531Z,6.94
2017-11-15T02:23:26.077Z,6.94
2017-11-15T02:24:06.588Z,7.03
2017-11-15T02:24:47.183Z,6.88
2017-11-15T02:25:27.719Z,6.89
2017-11-15T02:26:08.268Z,6.8
2017-11-15T02:26:48.792Z,6.81
2017-11-15T02:27:29.340Z,6.88
2017-11-15T02:28:09.873Z,6.92
2017-11-15T02:28:50.427Z,6.98
2017-11-15T02:29:31.017Z,7.05
2017-11-15T02:30:11.507Z,7.06
2017-11-15T02:30:52.014Z,7.09
2017-11-15T02:31:32.702Z,7.06
2017-11-15T02:32:13.152Z,7.21
2017-11-15T02:32:53.706Z,7.17
2017-11-15T02:33:34.280Z,7.13
2017-11-15T02:34:14.822Z,7.09
2017-11-15T02:34:55.387Z,7.03
2017-11-15T02:35:35.928Z,7.07
2017-11-15T02:36:16.458Z,7.2
2017-11-15T02:36:56.972Z,7.16
2017-11-15T02:37:37.517Z,7.21
2017-11-15T02:38:18.052Z,7.28
2017-11-15T02:38:58.749Z,7.25
2017-11-15T02:39:39.428Z,7.09
2017-11-15T02:40:19.967Z,7.12
2017-11-15T02:41:00.756Z,7.13
2017-11-15T02:41:41.450Z,7.06
2017-11-15T02:42:21.999Z,7.06
2017-11-15T02:43:02.574Z,7.1
2017-11-15T02:43:43.555Z,7.3
2017-11-15T02:44:24.069Z,7.24
2017-11-15T02:45:04.612Z,7.28
2017-11-15T02:45:45.170Z,7.28
2017-11-15T02:46:25.682Z,7.17
2017-11-15T02:47:06.265Z,7.28
2017-11-15T02:47:46.841Z,7.32
2017-11-15T02:48:27.432Z,7.31
2017-11-15T02:49:07.943Z,7.28
2017-11-15T02:49:48.473Z,7.3
2017-11-15T02:50:29.023Z,7.15
2017-11-15T02:51:09.562Z,7.15
2017-11-15T02:51:50.179Z,7.07
2017-11-15T02:52:30.658Z,7.17
2017-11-15T02:53:11.202Z,7.09
2017-11-15T02:53:51.719Z,7.1
2017-11-15T02:54:32.256Z,7.07
2017-11-15T02:55:12.797Z,7.2
2017-11-15T02:55:53.370Z,7.13
2017-11-15T02:56:33.861Z,7.09
2017-11-15T02:57:14.415Z,7.12
2017-11-15T02:57:54.918Z,7.12
2017-11-15T02:58:35.458Z,7.13
2017-11-15T02:59:15.949Z,7.09
2017-11-15T02:59:56.509Z,7.16
2017-11-15T03:00:37.034Z,7.1
2017-11-15T03:01:17.573Z,7.21
2017-11-15T03:01:58.098Z,6.98
2017-11-15T03:02:38.612Z,6.98
2017-11-15T03:03:19.212Z,6.89
2017-11-15T03:03:59.735Z,6.91
2017-11-15T03:04:40.265Z,7.02
2017-11-15T03:05:20.794Z,7.07
2017-11-15T03:06:01.336Z,7.12
2017-11-15T03:06:41.969Z,7.16
2017-11-15T03:07:22.567Z,7.13
2017-11-15T03:08:03.080Z,7.28
2017-11-15T03:08:43.542Z,7.17
2017-11-15T03:09:24.122Z,7.27
2017-11-15T03:10:04.673Z,7.17
2017-11-15T03:10:45.169Z,7.13
2017-11-15T03:11:25.727Z,7.2
2017-11-15T03:12:06.282Z,7.07
2017-11-15T03:12:46.967Z,7.16
2017-11-15T03:13:27.365Z,7.15
2017-11-15T03:14:07.848Z,7.15
2017-11-15T03:14:48.427Z,7.17
2017-11-15T03:15:28.955Z,7.09
2017-11-15T03:16:09.489Z,7.03
2017-11-15T03:16:50.017Z,6.97
2017-11-15T03:17:30.534Z,6.94
2017-11-15T03:18:11.100Z,7.02
2017-11-15T03:18:51.635Z,7.02
2017-11-15T03:19:32.326Z,7.07
2017-11-15T03:20:12.878Z,6.99
2017-11-15T03:20:53.405Z,7.16
2017-11-15T03:21:33.979Z,7.12
2017-11-15T03:22:14.585Z,7.06
2017-11-15T03:22:55.152Z,7.02
2017-11-15T03:23:35.726Z,6.85
2017-11-15T03:24:16.362Z,6.74
2017-11-15T03:24:56.889Z,6.76
2017-11-15T03:25:37.430Z,6.71
2017-11-15T03:26:18.005Z,6.84
2017-11-15T03:26:58.748Z,6.88
2017-11-15T03:27:39.290Z,6.94
2017-11-15T03:28:19.829Z,6.88
2017-11-15T03:29:00.390Z,6.95
2017-11-15T03:29:41.020Z,6.88
2017-11-15T03:30:21.470Z,7.02
2017-11-15T03:31:02.202Z,7.02
2017-11-15T03:31:42.685Z,7.05
2017-11-15T03:32:23.224Z,7.07
2017-11-15T03:33:03.888Z,7.09
2017-11-15T03:33:44.446Z,7.06
2017-11-15T03:34:25.058Z,7.07
2017-11-15T03:35:05.852Z,7.06
2017-11-15T03:35:46.382Z,7.09
2017-11-15T03:36:26.940Z,7.03
2017-11-15T03:37:07.620Z,6.99
2017-11-15T03:37:48.131Z,6.94
2017-11-15T03:38:28.705Z,7.02
2017-11-15T03:39:09.501Z,6.87
2017-11-15T03:39:50.047Z,7.09
2017-11-15T03:40:30.614Z,7.02
2017-11-15T03:41:11.152Z,6.97
2017-11-15T03:41:51.688Z,6.99
2017-11-15T03:42:32.212Z,7.02
2017-11-15T03:43:12.765Z,7.06
2017-11-15T03:43:53.301Z,7.03
2017-11-15T03:44:33.789Z,7.03
2017-11-15T03:45:14.368Z,7.15
2017-11-15T03:45:54.873Z,7.09
2017-11-15T03:46:35.411Z,7.05
2017-11-15T03:47:16.004Z,7.16
2017-11-15T03:47:57.205Z,7.13
2017-11-15T03:48:37.769Z,7.2
2017-11-15T03:49:18.295Z,7.15
2017-11-15T03:49:58.833Z,7.2
2017-11-15T03:50:39.377Z,7.12
2017-11-15T03:51:19.896Z,7.21
2017-11-15T03:52:00.459Z,7.2
2017-11-15T03:52:41.089Z,7.15
2017-11-15T03:53:21.624Z,7.2
2017-11-15T03:54:02.192Z,7.12
2017-11-15T03:54:43.223Z,7.12
2017-11-15T03:55:23.751Z,7.15
2017-11-15T03:56:04.308Z,7.13
2017-11-15T03:56:44.815Z,7.15
2017-11-15T03:57:25.399Z,7.12
2017-11-15T03:58:05.910Z,7.12
2017-11-15T03:58:46.424Z,7.25
2017-11-15T03:59:27.005Z,7.27
2017-11-15T04:00:07.642Z,7.17
2017-11-15T04:00:48.214Z,7.25
2017-11-15T04:01:28.753Z,7.25
2017-11-15T04:02:09.243Z,7.3
2017-11-15T04:02:49.838Z,7.3
2017-11-15T04:03:30.339Z,7.15
2017-11-15T04:04:10.940Z,7.17
2017-11-15T04:04:51.517Z,7.17
2017-11-15T04:05:32.086Z,7.21
2017-11-15T04:06:12.587Z,7.2
2017-11-15T04:06:53.192Z,7.25
2017-11-15T04:07:33.729Z,7.27
2017-11-15T04:08:14.292Z,7.24
2017-11-15T04:08:54.818Z,7.27
2017-11-15T04:09:35.378Z,7.21
2017-11-15T04:10:15.903Z,7.16
2017-11-15T04:10:56.411Z,7.23
2017-11-15T04:11:36.920Z,7.17
2017-11-15T04:12:17.503Z,7.15
2017-11-15T04:12:58.014Z,7.09
2017-11-15T04:13:38.555Z,7.15
2017-11-15T04:14:19.072Z,7.07
2017-11-15T04:14:59.646Z,7.09
2017-11-15T04:15:40.166Z,7.17
2017-11-15T04:16:20.691Z,7.1
2017-11-15T04:17:01.222Z,7.06
2017-11-15T04:17:41.752Z,7.15
2017-11-15T04:18:22.365Z,7.15
2017-11-15T04:19:02.948Z,7.13
2017-11-15T04:19:43.482Z,7.1
2017-11-15T04:20:24.054Z,7.1
2017-11-15T04:21:04.586Z,7.16
2017-11-15T04:21:45.167Z,7.17
2017-11-15T04:22:25.629Z,7.13
2017-11-15T04:23:06.192Z,7.09
2017-11-15T04:23:46.717Z,7.03
2017-11-15T04:24:27.294Z,6.91
2017-11-15T04:25:07.747Z,6.81
2017-11-15T04:25:48.267Z,6.87
2017-11-15T04:26:28.836Z,6.89
2017-11-15T04:27:09.298Z,6.88
2017-11-15T04:27:49.893Z,6.89
2017-11-15T04:28:30.521Z,6.95
2017-11-15T04:29:11.052Z,7.02
2017-11-15T04:29:51.589Z,6.84
2017-11-15T04:30:32.102Z,6.88
2017-11-15T04:31:12.699Z,6.85
2017-11-15T04:31:53.401Z,7.02
2017-11-15T04:32:33.958Z,6.94
2017-11-15T04:33:14.473Z,6.91
2017-11-15T04:33:55.057Z,6.94
2017-11-15T04:34:35.587Z,6.85
2017-11-15T04:35:16.109Z,6.87
2017-11-15T04:35:56.672Z,6.85
2017-11-15T04:36:37.197Z,6.81
2017-11-15T04:37:17.708Z,6.84
2017-11-15T04:37:58.233Z,6.87
2017-11-15T04:38:38.804Z,6.87
2017-11-15T04:39:19.328Z,6.95
2017-11-15T04:39:59.903Z,6.89
2017-11-15T04:40:40.438Z,6.91
2017-11-15T04:41:20.953Z,6.91
2017-11-15T04:42:01.489Z,6.85
2017-11-15T04:42:42.048Z,6.81
2017-11-15T04:43:22.593Z,6.84
2017-11-15T04:44:03.136Z,6.79
2017-11-15T04:44:43.758Z,6.79
2017-11-15T04:45:24.287Z,6.94
2017-11-15T04:46:04.823Z,6.87
2017-11-15T04:46:45.364Z,6.85
2017-11-15T04:47:25.932Z,6.84
2017-11-15T04:48:06.452Z,6.8
2017-11-15T04:48:46.959Z,6.84
2017-11-15T04:49:27.527Z,6.71
2017-11-15T04:50:08.038Z,6.67
2017-11-15T04:50:48.646Z,6.46
2017-11-15T04:51:29.150Z,6.58
2017-11-15T04:52:09.663Z,6.66
2017-11-15T04:52:50.236Z,6.66
2017-11-15T04:53:30.783Z,6.73
2017-11-15T04:54:11.243Z,6.73
2017-11-15T04:54:51.859Z,6.73
2017-11-15T04:55:32.336Z,6.71
2017-11-15T04:56:12.981Z,6.77
2017-11-15T04:56:53.533Z,6.79
2017-11-15T04:57:34.001Z,6.64
2017-11-15T04:58:14.580Z,6.69
2017-11-15T04:58:55.132Z,6.69
2017-11-15T04:59:35.643Z,6.71
2017-11-15T05:00:16.167Z,6.67
2017-11-15T05:00:56.717Z,6.81
2017-11-15T05:01:37.286Z,6.76
2017-11-15T05:02:17.811Z,6.87
2017-11-15T05:02:58.414Z,6.79
2017-11-15T05:03:38.950Z,6.88
2017-11-15T05:04:19.529Z,6.84
2017-11-15T05:05:00.137Z,6.7
2017-11-15T05:05:40.618Z,6.81
2017-11-15T05:06:21.118Z,6.74
2017-11-15T05:07:01.616Z,6.8
2017-11-15T05:07:42.168Z,6.84
2017-11-15T05:08:22.734Z,6.85
2017-11-15T05:09:03.242Z,6.89
2017-11-15T05:09:43.783Z,6.85
2017-11-15T05:10:24.380Z,6.85
2017-11-15T05:11:04.848Z,6.8
2017-11-15T05:11:45.376Z,6.85
2017-11-15T05:12:25.989Z,6.97
2017-11-15T05:13:06.491Z,6.95
2017-11-15T05:13:47.066Z,6.87
2017-11-15T05:14:27.664Z,6.89
2017-11-15T05:15:08.145Z,7.02
2017-11-15T05:15:48.720Z,6.99
2017-11-15T05:16:29.275Z,6.99
2017-11-15T05:17:09.783Z,6.94
2017-11-15T05:17:50.328Z,6.92
2017-11-15T05:18:30.862Z,6.92
2017-11-15T05:19:11.404Z,6.84
2017-11-15T05:19:51.929Z,6.92
2017-11-15T05:20:32.525Z,6.98
2017-11-15T05:21:13.052Z,7.02
2017-11-15T05:21:53.507Z,6.99
2017-11-15T05:22:34.091Z,6.98
2017-11-15T05:23:14.832Z,6.8
2017-11-15T05:23:55.415Z,6.85
2017-11-15T05:24:35.938Z,6.91
2017-11-15T05:25:16.502Z,6.81
2017-11-15T05:25:57.028Z,6.84
2017-11-15T05:26:37.626Z,6.95
2017-11-15T05:27:18.232Z,7.05
2017-11-15T05:27:58.754Z,7.02
2017-11-15T05:28:39.306Z,7.1
2017-11-15T05:29:19.860Z,7.09
2017-11-15T05:30:00.362Z,6.89
2017-11-15T05:30:40.907Z,6.87
2017-11-15T05:31:21.443Z,6.67
2017-11-15T05:32:02.005Z,6.66
2017-11-15T05:32:42.573Z,6.62
2017-11-15T05:33:23.236Z,6.61
2017-11-15T05:34:03.805Z,6.64
2017-11-15T05:34:44.324Z,6.66
2017-11-15T05:35:24.879Z,6.64
2017-11-15T05:36:05.483Z,6.58
2017-11-15T05:36:46.096Z,6.48
2017-11-15T05:37:26.628Z,6.61
2017-11-15T05:38:07.169Z,6.7
2017-11-15T05:38:47.697Z,6.61
2017-11-15T05:39:28.240Z,6.48
2017-11-15T05:40:08.881Z,6.49
2017-11-15T05:40:49.465Z,6.61
2017-11-15T05:41:30.015Z,6.67
2017-11-15T05:42:10.563Z,6.62
2017-11-15T05:42:51.421Z,6.58
2017-11-15T05:43:31.904Z,6.48
2017-11-15T05:44:12.584Z,6.54
2017-11-15T05:44:53.260Z,6.44
2017-11-15T05:45:34.028Z,6.44
2017-11-15T05:46:14.570Z,6.58
2017-11-15T05:46:55.143Z,6.55
2017-11-15T05:47:35.650Z,6.64
2017-11-15T05:48:16.194Z,6.61
2017-11-15T05:48:56.773Z,6.55
2017-11-15T05:49:37.291Z,6.59
2017-11-15T05:50:17.835Z,6.61
2017-11-15T05:50:58.418Z,6.61
2017-11-15T05:51:39.014Z,6.62
2017-11-15T05:52:19.489Z,6.51
2017-11-15T05:53:00.062Z,6.48
2017-11-15T05:53:40.559Z,6.58
2017-11-15T05:54:21.098Z,6.67
2017-11-15T05:55:01.699Z,6.7
2017-11-15T05:55:42.225Z,6.69
2017-11-15T05:56:22.718Z,6.7
2017-11-15T05:57:03.216Z,6.67
2017-11-15T05:57:43.846Z,6.58
2017-11-15T05:58:24.321Z,6.61
2017-11-15T05:59:04.898Z,6.64
2017-11-15T05:59:45.303Z,6.58
2017-11-15T06:00:25.914Z,6.58
2017-11-15T06:01:06.452Z,6.61
2017-11-15T06:01:46.947Z,6.61
2017-11-15T06:02:27.518Z,6.48
2017-11-15T06:03:08.027Z,6.49
2017-11-15T06:03:48.606Z,6.51
2017-11-15T06:04:29.078Z,6.46
2017-11-15T06:05:09.625Z,6.43
2017-11-15T06:05:50.144Z,6.46
2017-11-15T06:06:30.723Z,6.62
2017-11-15T06:07:11.237Z,6.58
2017-11-15T06:07:51.804Z,6.56
2017-11-15T06:08:32.417Z,6.56
2017-11-15T06:09:12.861Z,6.55
2017-11-15T06:09:53.381Z,6.61
2017-11-15T06:10:33.963Z,6.59
2017-11-15T06:11:14.521Z,6.61
2017-11-15T06:11:55.057Z,6.64
2017-11-15T06:12:35.629Z,6.56
2017-11-15T06:13:16.205Z,6.58
2017-11-15T06:13:56.831Z,6.49
2017-11-15T06:14:37.251Z,6.54
2017-11-15T06:15:17.863Z,6.52
2017-11-15T06:15:58.519Z,6.49
2017-11-15T06:16:39.118Z,6.4
2017-11-15T06:17:19.428Z,6.34
2017-11-15T06:17:59.986Z,6.4
2017-11-15T06:18:40.568Z,6.52
2017-11-15T06:19:21.210Z,6.41
2017-11-15T06:20:01.777Z,6.44
2017-11-15T06:20:42.206Z,6.49
2017-11-15T06:21:23.087Z,6.48
2017-11-15T06:22:03.546Z,6.37
2017-11-15T06:22:44.187Z,6.38
2017-11-15T06:23:24.719Z,6.34
2017-11-15T06:24:05.138Z,6.38
2017-11-15T06:24:45.735Z,6.33
2017-11-15T06:25:26.328Z,6.37
2017-11-15T06:26:06.692Z,6.08
2017-11-15T06:26:47.268Z,6.22
2017-11-15T06:27:27.867Z,6.25
2017-11-15T06:28:08.553Z,6.28
2017-11-15T06:28:49.004Z,6.27
2017-11-15T06:29:29.691Z,6.41
2017-11-15T06:30:10.103Z,6.48
2017-11-15T06:30:50.674Z,6.4
2017-11-15T06:31:31.271Z,6.41
2017-11-15T06:32:11.919Z,6.44
2017-11-15T06:32:52.351Z,6.54
2017-11-15T06:33:32.894Z,6.43
2017-11-15T06:34:13.593Z,6.44
2017-11-15T06:34:54.069Z,6.52
2017-11-15T06:35:34.673Z,6.52
2017-11-15T06:36:15.191Z,6.44
2017-11-15T06:36:56.077Z,6.54
2017-11-15T06:37:36.519Z,6.51
2017-11-15T06:38:17.908Z,6.58
2017-11-15T06:38:58.658Z,6.54
2017-11-15T06:39:39.846Z,6.54
2017-11-15T06:40:20.810Z,6.58
2017-11-15T06:41:01.302Z,6.59
2017-11-15T06:41:42.888Z,6.59
2017-11-15T06:42:25.428Z,6.49
2017-11-15T06:43:05.906Z,6.4
2017-11-15T06:43:46.454Z,6.38
2017-11-15T06:44:27.037Z,6.34
2017-11-15T06:45:07.567Z,6.41
2017-11-15T06:45:48.115Z,6.43
2017-11-15T06:46:28.661Z,6.49
2017-11-15T06:47:09.208Z,6.43
2017-11-15T06:47:49.752Z,6.38
2017-11-15T06:48:30.289Z,6.43
2017-11-15T06:49:10.842Z,6.48
2017-11-15T06:49:51.412Z,6.43
2017-11-15T06:50:32.009Z,6.33
2017-11-15T06:51:12.965Z,6.43
2017-11-15T06:51:53.363Z,6.38
2017-11-15T06:52:33.884Z,6.3
2017-11-15T06:53:14.427Z,6.4
2017-11-15T06:53:55.036Z,6.51
2017-11-15T06:54:35.990Z,6.49
2017-11-15T06:55:16.533Z,6.48
2017-11-15T06:55:57.099Z,6.58
2017-11-15T06:56:37.637Z,6.64
2017-11-15T06:57:18.136Z,6.61
2017-11-15T06:57:58.790Z,6.59
2017-11-15T06:58:39.652Z,6.69
2017-11-15T06:59:20.200Z,6.71
2017-11-15T07:00:00.747Z,6.71
2017-11-15T07:00:41.250Z,6.69
2017-11-15T07:01:21.789Z,6.66
2017-11-15T07:02:02.320Z,6.74
2017-11-15T07:02:42.867Z,6.79
2017-11-15T07:03:23.437Z,6.79
2017-11-15T07:04:04.076Z,6.8
2017-11-15T07:04:44.666Z,6.76
2017-11-15T07:05:25.184Z,6.76
2017-11-15T07:06:05.700Z,6.87
2017-11-15T07:06:46.308Z,6.81
2017-11-15T07:07:26.839Z,6.81
2017-11-15T07:08:07.393Z,6.84
2017-11-15T07:08:47.928Z,6.81
2017-11-15T07:09:28.579Z,6.88
2017-11-15T07:10:09.160Z,6.81
2017-11-15T07:10:49.869Z,6.87
2017-11-15T07:11:30.299Z,6.95
2017-11-15T07:12:10.842Z,7.02
2017-11-15T07:12:51.411Z,6.92
2017-11-15T07:13:31.988Z,7.02
2017-11-15T07:14:12.539Z,7.09
2017-11-15T07:14:53.080Z,7.02
2017-11-15T07:15:33.615Z,6.89
2017-11-15T07:16:14.182Z,7.34
2017-11-15T07:16:54.729Z,7.37
2017-11-15T07:17:35.431Z,7.39
2017-11-15T07:18:15.969Z,7.43
2017-11-15T07:18:56.476Z,7.4
2017-11-15T07:19:37.062Z,7.45
2017-11-15T07:20:17.531Z,7.45
2017-11-15T07:20:58.124Z,7.42
2017-11-15T07:21:38.594Z,7.46
2017-11-15T07:22:19.142Z,7.32
2017-11-15T07:22:59.745Z,7.2
2017-11-15T07:23:40.385Z,7.17
2017-11-15T07:24:20.891Z,7.13
2017-11-15T07:25:01.394Z,7.09
2017-11-15T07:25:42.015Z,7.15
2017-11-15T07:26:22.608Z,7.15
2017-11-15T07:27:03.197Z,7.25
2017-11-15T07:27:43.712Z,7.71
2017-11-15T07:28:24.318Z,8.12
2017-11-15T07:29:04.995Z,7.9
2017-11-15T07:29:45.536Z,7.97
2017-11-15T07:30:26.100Z,7.8
2017-11-15T07:31:06.657Z,7.72
2017-11-15T07:31:47.218Z,7.61
2017-11-15T07:32:27.740Z,7.5
2017-11-15T07:33:08.321Z,7.58
2017-11-15T07:33:48.848Z,7.45
2017-11-15T07:34:29.367Z,7.39
2017-11-15T07:35:09.886Z,7.1
2017-11-15T07:35:50.461Z,7.15
2017-11-15T07:36:31.107Z,7.24
2017-11-15T07:37:11.635Z,7.17
2017-11-15T07:37:52.249Z,7.17
2017-11-15T07:38:32.747Z,7.5
2017-11-15T07:39:13.281Z,7.86
2017-11-15T07:39:53.829Z,7.98
2017-11-15T07:40:34.416Z,7.57
2017-11-15T07:41:14.942Z,7.55
2017-11-15T07:41:55.549Z,7.79
2017-11-15T07:42:36.127Z,7.89
2017-11-15T07:43:16.689Z,8.08
2017-11-15T07:43:57.241Z,7.89
2017-11-15T07:44:37.783Z,7.61
2017-11-15T07:45:18.406Z,7.52
2017-11-15T07:45:58.974Z,7.4
2017-11-15T07:46:39.487Z,7.37
2017-11-15T07:47:20.080Z,7.34
2017-11-15T07:48:00.611Z,7.32
2017-11-15T07:48:41.133Z,7.23
2017-11-15T07:49:21.690Z,7.2
2017-11-15T07:50:02.263Z,7.31
2017-11-15T07:50:42.751Z,7.28
2017-11-15T07:51:23.284Z,7.2
2017-11-15T07:52:03.947Z,7.28
2017-11-15T07:52:44.545Z,7.27
2017-11-15T07:53:25.264Z,7.13
2017-11-15T07:54:05.699Z,7.31
2017-11-15T07:54:46.293Z,7.35
2017-11-15T07:55:27.104Z,7.35
2017-11-15T07:56:07.720Z,7.4
2017-11-15T07:56:48.078Z,7.43
2017-11-15T07:57:28.857Z,7.4
2017-11-15T07:58:09.527Z,7.4
2017-11-15T07:58:50.265Z,7.37
2017-11-15T07:59:30.926Z,7.25
2017-11-15T08:00:11.482Z,7.23
2017-11-15T08:00:52.120Z,7.16
2017-11-15T08:01:32.619Z,7.17
2017-11-15T08:02:13.279Z,7.42
2017-11-15T08:02:53.965Z,7.48
2017-11-15T08:03:34.509Z,7.74
2017-11-15T08:04:15.048Z,7.67
2017-11-15T08:04:55.734Z,7.9
2017-11-15T08:05:36.483Z,8.1
2017-11-15T08:06:17.006Z,8.01
2017-11-15T08:06:57.451Z,7.97
2017-11-15T08:07:38.171Z,8.07
2017-11-15T08:08:18.705Z,8.1
2017-11-15T08:08:59.213Z,7.97
2017-11-15T08:09:39.741Z,7.72
2017-11-15T08:10:20.325Z,7.53
2017-11-15T08:11:00.902Z,7.67
2017-11-15T08:11:41.526Z,7.53
2017-11-15T08:12:22.018Z,7.61
2017-11-15T08:13:02.598Z,7.52
2017-11-15T08:13:43.166Z,7.61
2017-11-15T08:14:23.676Z,7.64
2017-11-15T08:15:04.236Z,7.64
2017-11-15T08:15:44.793Z,7.58
2017-11-15T08:16:25.436Z,7.61
2017-11-15T08:17:06.465Z,7.48
2017-11-15T08:17:46.414Z,7.63
2017-11-15T08:18:26.953Z,7.86
2017-11-15T08:19:07.594Z,7.93
2017-11-15T08:19:48.193Z,7.92
2017-11-15T08:20:28.857Z,8.11
2017-11-15T08:21:09.405Z,7.92
2017-11-15T08:21:49.929Z,8.11
2017-11-15T08:22:30.552Z,8.1
2017-11-15T08:23:11.087Z,7.89
2017-11-15T08:23:51.807Z,7.85
2017-11-15T08:24:32.758Z,7.9
2017-11-15T08:25:13.501Z,7.53
2017-11-15T08:25:54.074Z,7.63
2017-11-15T08:26:34.561Z,7.52
2017-11-15T08:27:15.144Z,7.57
2017-11-15T08:27:55.829Z,7.58
2017-11-15T08:28:36.332Z,7.63
2017-11-15T08:29:16.968Z,7.57
2017-11-15T08:29:57.482Z,7.74
2017-11-15T08:30:38.274Z,7.85
2017-11-15T08:31:19.045Z,7.97
2017-11-15T08:31:59.616Z,7.82
2017-11-15T08:32:40.246Z,7.68
2017-11-15T08:33:20.767Z,7.95
2017-11-15T08:34:01.422Z,7.87
2017-11-15T08:34:42.044Z,7.85
2017-11-15T08:35:22.568Z,7.75
2017-11-15T08:36:03.388Z,7.68
2017-11-15T08:36:43.778Z,7.69
2017-11-15T08:37:24.367Z,7.77
2017-11-15T08:38:04.974Z,7.89
2017-11-15T08:38:45.566Z,7.92
2017-11-15T08:39:26.217Z,7.87
2017-11-15T08:40:06.787Z,7.83
2017-11-15T08:40:47.515Z,7.86
2017-11-15T08:41:28.086Z,7.86
2017-11-15T08:42:08.614Z,7.97
2017-11-15T08:42:49.262Z,8.01
2017-11-15T08:43:29.788Z,8.11
2017-11-15T08:44:10.362Z,8.11
2017-11-15T08:44:51.074Z,8.04
2017-11-15T08:45:31.677Z,8.08
2017-11-15T08:46:12.733Z,8.05
2017-11-15T08:46:53.449Z,7.87
2017-11-15T08:47:34.246Z,7.9
2017-11-15T08:48:14.856Z,8.02
2017-11-15T08:48:55.409Z,8.08
2017-11-15T08:49:35.969Z,8.04
2017-11-15T08:50:16.542Z,8.07
2017-11-15T08:50:57.080Z,8.04
2017-11-15T08:51:38.121Z,8.04
2017-11-15T08:52:18.733Z,8.18
2017-11-15T08:52:59.854Z,8.04
2017-11-15T08:53:40.403Z,8.02
2017-11-15T08:54:21.586Z,8.07
2017-11-15T08:55:02.100Z,8.04
2017-11-15T08:55:42.576Z,7.92
2017-11-15T08:56:23.404Z,7.89
2017-11-15T08:57:04.685Z,8.02
2017-11-15T08:57:45.277Z,8.11
2017-11-15T08:58:25.954Z,8.12
2017-11-15T08:59:06.592Z,8.11
2017-11-15T08:59:47.099Z,8.16
2017-11-15T09:00:27.914Z,8.11
2017-11-15T09:01:08.542Z,8.19
2017-11-15T09:01:49.159Z,8.23